Terminal Aerodrome Forecast
Issued by NWS

Home | Current Version | Previous Version | Text Only | Print | Product List | Glossary On
Versions: 1 2 3 4 5 6 7 8 9 10 11 12 13 14 15 16 17 18 19 20 21 22 23
000
FTUS43 KLSX 230200 AAA
TAFSUS
TAF AMD
KSUS 230215Z 2302/2324 18005KT 6SM -RA BKN010 OVC050
      TEMPO 2302/2305 5SM -RA BR BKN008 OVC015
     FM230530 23008KT P6SM SCT050
     FM231500 24006KT P6SM BKN100=

USA.gov is the U.S. government's official web portal to all federal, state and local government web resources and services.